createdAt,value
2018-12-26T00:00:11.352Z,103548.52
2018-12-26T00:02:42.359Z,103549.05
2018-12-26T00:05:10.285Z,103549.45
2018-12-26T00:07:38.296Z,103548.22
2018-12-26T00:10:06.461Z,103546.83
2018-12-26T00:12:37.969Z,103548.30
2018-12-26T00:15:06.324Z,103550.02
2018-12-26T00:17:34.406Z,103546.58
2018-12-26T00:20:03.913Z,103546.69
2018-12-26T00:22:32.097Z,103559.97
2018-12-26T00:25:03.258Z,103551.09
2018-12-26T00:27:31.266Z,103557.42
2018-12-26T00:29:59.149Z,103549.14
2018-12-26T00:32:27.145Z,103554.08
2018-12-26T00:34:57.357Z,103551.22
2018-12-26T00:37:25.506Z,103547.70
2018-12-26T00:39:53.631Z,103542.11
2018-12-26T00:42:21.522Z,103537.08
2018-12-26T00:44:49.610Z,103536.95
2018-12-26T00:47:20.220Z,103535.36
2018-12-26T00:49:48.249Z,103529.86
2018-12-26T00:52:16.309Z,103538.11
2018-12-26T00:54:44.257Z,103536.34
2018-12-26T00:57:15.809Z,103536.05
2018-12-26T00:59:43.949Z,103534.69
2018-12-26T01:02:11.835Z,103528.37
2018-12-26T01:04:39.843Z,103533.77
2018-12-26T01:07:07.795Z,103524.20
2018-12-26T01:09:35.856Z,103524.92
2018-12-26T01:12:03.838Z,103519.43
2018-12-26T01:14:31.851Z,103518.97
2018-12-26T01:17:01.409Z,103521.68
2018-12-26T01:19:29.807Z,103521.28
2018-12-26T01:22:01.036Z,103518.96
2018-12-26T01:24:28.914Z,103524.29
2018-12-26T01:26:56.870Z,103513.80
2018-12-26T01:29:24.885Z,103514.19
2018-12-26T01:31:52.833Z,103507.63
2018-12-26T01:34:20.881Z,103512.91
2018-12-26T01:36:48.927Z,103512.91
2018-12-26T01:39:16.871Z,103505.13
2018-12-26T01:41:44.874Z,103509.34
2018-12-26T01:44:13.023Z,103501.92
2018-12-26T01:46:41.043Z,103502.69
2018-12-26T01:49:08.891Z,103501.69
2018-12-26T01:51:36.911Z,103491.28
2018-12-26T01:54:04.869Z,103486.70
2018-12-26T01:56:32.796Z,103489.59
2018-12-26T01:59:00.820Z,103488.80
2018-12-26T02:01:28.757Z,103482.91
2018-12-26T02:03:56.777Z,103485.75
2018-12-26T02:06:24.763Z,103487.59
2018-12-26T02:08:52.658Z,103477.69
2018-12-26T02:11:20.741Z,103484.61
2018-12-26T02:13:48.689Z,103476.27
2018-12-26T02:16:16.851Z,103477.77
2018-12-26T02:18:44.733Z,103474.16
2018-12-26T02:21:12.659Z,103475.11
2018-12-26T02:23:43.737Z,103470.46
2018-12-26T02:26:11.704Z,103465.78
2018-12-26T02:28:39.559Z,103468.88
2018-12-26T02:31:10.718Z,103471.81
2018-12-26T02:33:38.787Z,103464.66
2018-12-26T02:36:06.732Z,103468.76
2018-12-26T02:38:34.795Z,103476.41
2018-12-26T02:41:02.683Z,103464.05
2018-12-26T02:43:30.708Z,103461.97
2018-12-26T02:45:58.627Z,103459.52
2018-12-26T02:48:26.504Z,103464.04
2018-12-26T02:50:54.945Z,103458.16
2018-12-26T02:53:22.795Z,103458.84
2018-12-26T02:55:50.901Z,103459.61
2018-12-26T02:58:18.856Z,103451.48
2018-12-26T03:00:46.771Z,103454.75
2018-12-26T03:03:14.734Z,103448.31
2018-12-26T03:05:42.837Z,103446.59
2018-12-26T03:08:10.771Z,103445.80
2018-12-26T03:10:38.797Z,103445.90
2018-12-26T03:13:06.696Z,103437.49
2018-12-26T03:15:34.502Z,103434.59
2018-12-26T03:18:02.504Z,103443.46
2018-12-26T03:20:30.496Z,103435.36
2018-12-26T03:22:58.427Z,103443.14
2018-12-26T03:25:26.445Z,103432.53
2018-12-26T03:27:54.390Z,103437.84
2018-12-26T03:30:22.241Z,103435.80
2018-12-26T03:32:50.229Z,103441.80
2018-12-26T03:35:18.218Z,103430.66
2018-12-26T03:37:46.099Z,103435.73
2018-12-26T03:40:14.142Z,103435.72
2018-12-26T03:42:44.447Z,103434.84
2018-12-26T03:45:12.760Z,103437.95
2018-12-26T03:47:42.175Z,103432.65
2018-12-26T03:50:10.242Z,103433.71
2018-12-26T03:52:38.109Z,103425.94
2018-12-26T03:55:06.152Z,103426.95
2018-12-26T03:57:34.133Z,103424.61
2018-12-26T04:00:02.174Z,103423.48
2018-12-26T04:02:30.179Z,103427.65
2018-12-26T04:04:58.267Z,103426.39
2018-12-26T04:07:26.137Z,103430.94
2018-12-26T04:09:54.286Z,103427.88
2018-12-26T04:12:22.275Z,103417.54
2018-12-26T04:14:50.268Z,103411.56
2018-12-26T04:17:18.197Z,103408.60
2018-12-26T04:19:46.595Z,103406.25
2018-12-26T04:22:14.902Z,103409.52
2018-12-26T04:24:45.521Z,103409.63
2018-12-26T04:27:15.632Z,103410.59
2018-12-26T04:29:43.775Z,103415.62
2018-12-26T04:32:11.997Z,103418.17
2018-12-26T04:34:40.385Z,103412.23
2018-12-26T04:37:09.791Z,103412.25
2018-12-26T04:39:38.806Z,103409.16
2018-12-26T04:42:07.099Z,103403.18
2018-12-26T04:44:35.825Z,103403.35
2018-12-26T04:47:05.366Z,103403.22
2018-12-26T04:49:33.511Z,103406.61
2018-12-26T04:52:01.528Z,103395.08
2018-12-26T04:54:29.585Z,103396.34
2018-12-26T04:56:57.586Z,103395.45
2018-12-26T04:59:25.683Z,103392.73
2018-12-26T05:01:53.861Z,103396.63
2018-12-26T05:04:22.082Z,103387.77
2018-12-26T05:06:57.103Z,103389.89
2018-12-26T05:09:27.397Z,103391.19
2018-12-26T05:11:55.559Z,103396.70
2018-12-26T05:14:23.572Z,103392.45
2018-12-26T05:16:51.817Z,103390.86
2018-12-26T05:19:19.848Z,103397.09
2018-12-26T05:21:48.014Z,103393.30
2018-12-26T05:24:16.058Z,103391.67
2018-12-26T05:26:44.124Z,103385.41
2018-12-26T05:29:12.093Z,103389.38
2018-12-26T05:31:40.125Z,103384.23
2018-12-26T05:34:14.005Z,103390.41
2018-12-26T05:36:42.531Z,103389.45
2018-12-26T05:39:10.699Z,103389.47
2018-12-26T05:41:38.800Z,103388.13
2018-12-26T05:44:06.940Z,103393.18
2018-12-26T05:46:35.131Z,103398.44
2018-12-26T05:49:03.167Z,103392.94
2018-12-26T05:51:31.270Z,103392.69
2018-12-26T05:53:59.368Z,103397.51
2018-12-26T05:56:27.744Z,103395.81
2018-12-26T05:59:07.384Z,103251.20
2018-12-26T06:01:39.855Z,103389.11
2018-12-26T06:04:07.773Z,103397.51
2018-12-26T06:06:36.826Z,103397.50
2018-12-26T06:09:08.380Z,103406.24
2018-12-26T06:11:37.292Z,103407.07
2018-12-26T06:14:05.394Z,103409.68
2018-12-26T06:16:33.651Z,103411.77
2018-12-26T06:19:01.738Z,103408.35
2018-12-26T06:21:29.688Z,103407.89
2018-12-26T06:23:57.807Z,103411.66
2018-12-26T06:26:25.971Z,103417.94
2018-12-26T06:28:57.840Z,103412.25
2018-12-26T06:31:27.813Z,103224.67
2018-12-26T06:34:00.102Z,103413.28
2018-12-26T06:36:33.970Z,103415.35
2018-12-26T06:39:02.225Z,103417.58
2018-12-26T06:41:30.188Z,103405.56
2018-12-26T06:43:59.217Z,103410.78
2018-12-26T06:46:27.293Z,103409.66
2018-12-26T06:48:57.995Z,103406.81
2018-12-26T06:51:26.007Z,103408.70
2018-12-26T06:53:54.105Z,103401.45
2018-12-26T06:56:21.960Z,103403.28
2018-12-26T06:58:49.912Z,103399.78
2018-12-26T07:01:17.896Z,103402.73
2018-12-26T07:03:46.287Z,103407.84
2018-12-26T07:06:14.235Z,103410.17
2018-12-26T07:08:42.232Z,103420.42
2018-12-26T07:11:10.077Z,103422.08
2018-12-26T07:13:37.955Z,103417.77
2018-12-26T07:16:05.933Z,103424.59
2018-12-26T07:18:33.776Z,103423.42
2018-12-26T07:21:01.670Z,103423.50
2018-12-26T07:23:29.635Z,103423.88
2018-12-26T07:25:57.597Z,103418.77
2018-12-26T07:28:25.671Z,103428.31
2018-12-26T07:30:53.520Z,103424.06
2018-12-26T07:33:21.389Z,103425.61
2018-12-26T07:35:49.388Z,103417.38
2018-12-26T07:38:17.239Z,103419.52
2018-12-26T07:40:45.088Z,103427.09
2018-12-26T07:43:13.052Z,103421.16
2018-12-26T07:45:40.953Z,103426.69
2018-12-26T07:48:08.818Z,103425.00
2018-12-26T07:50:36.774Z,103425.67
2018-12-26T07:53:04.613Z,103428.47
2018-12-26T07:55:32.472Z,103430.33
2018-12-26T07:58:00.476Z,103435.78
2018-12-26T08:00:28.355Z,103439.45
2018-12-26T08:02:56.314Z,103435.33
2018-12-26T08:05:26.014Z,103440.08
2018-12-26T08:07:53.841Z,103433.32
2018-12-26T08:10:21.782Z,103434.86
2018-12-26T08:12:49.792Z,103437.02
2018-12-26T08:15:17.690Z,103433.20
2018-12-26T08:17:45.528Z,103434.90
2018-12-26T08:20:13.496Z,103437.50
2018-12-26T08:22:41.385Z,103444.59
2018-12-26T08:25:09.584Z,103446.84
2018-12-26T08:27:37.508Z,103446.00
2018-12-26T08:30:05.691Z,103447.14
2018-12-26T08:32:33.708Z,103442.45
2018-12-26T08:35:01.687Z,103440.19
2018-12-26T08:37:29.930Z,103439.21
2018-12-26T08:39:57.827Z,103434.13
2018-12-26T08:42:25.773Z,103438.93
2018-12-26T08:44:53.745Z,103435.33
2018-12-26T08:47:21.686Z,103434.98
2018-12-26T08:49:49.702Z,103432.66
2018-12-26T08:52:17.777Z,103437.75
2018-12-26T08:54:45.747Z,103435.91
2018-12-26T08:57:13.717Z,103440.41
2018-12-26T08:59:42.890Z,103433.88
2018-12-26T09:02:10.843Z,103428.29
2018-12-26T09:04:38.780Z,103432.52
2018-12-26T09:07:06.691Z,103429.73
2018-12-26T09:09:34.803Z,103436.61
2018-12-26T09:12:02.931Z,103436.72
2018-12-26T09:14:30.891Z,103444.88
2018-12-26T09:16:58.932Z,103449.17
2018-12-26T09:19:26.884Z,103442.68
2018-12-26T09:21:54.787Z,103444.53
2018-12-26T09:24:23.278Z,103438.00
2018-12-26T09:26:51.388Z,103446.87
2018-12-26T09:29:19.246Z,103443.13
2018-12-26T09:31:47.149Z,103452.08
2018-12-26T09:34:15.355Z,103450.91
2018-12-26T09:36:43.255Z,103464.46
2018-12-26T09:39:11.977Z,103458.06
2018-12-26T09:41:40.163Z,103456.80
2018-12-26T09:44:08.056Z,103462.72
2018-12-26T09:46:35.935Z,103463.08
2018-12-26T09:49:03.903Z,103461.34
2018-12-26T09:51:33.916Z,103469.81
2018-12-26T09:54:03.389Z,103468.56
2018-12-26T09:56:31.273Z,103466.29
2018-12-26T09:58:59.159Z,103470.66
2018-12-26T10:01:27.248Z,103471.11
2018-12-26T10:03:55.095Z,103465.80
2018-12-26T10:06:23.013Z,103467.63
2018-12-26T10:08:51.410Z,103469.59
2018-12-26T10:11:19.349Z,103459.79
2018-12-26T10:13:47.162Z,103459.02
2018-12-26T10:16:15.148Z,103452.91
2018-12-26T10:18:43.128Z,103442.05
2018-12-26T10:21:11.107Z,103445.06
2018-12-26T10:23:38.963Z,103444.65
2018-12-26T10:26:06.941Z,103429.69
2018-12-26T10:28:34.948Z,103438.86
2018-12-26T10:31:03.035Z,103434.23
2018-12-26T10:33:31.030Z,103436.62
2018-12-26T10:35:58.914Z,103438.22
2018-12-26T10:38:26.795Z,103430.20
2018-12-26T10:40:54.815Z,103427.22
2018-12-26T10:43:24.931Z,103430.26
2018-12-26T10:45:52.797Z,103429.83
2018-12-26T10:48:20.778Z,103432.98
2018-12-26T10:50:48.693Z,103427.80
2018-12-26T10:53:16.637Z,103418.77
2018-12-26T10:55:44.621Z,103425.36
2018-12-26T10:58:12.818Z,103420.19
2018-12-26T11:00:40.763Z,103407.55
2018-12-26T11:03:08.847Z,103412.57
2018-12-26T11:05:36.697Z,103409.70
2018-12-26T11:08:04.643Z,103407.98
2018-12-26T11:10:32.675Z,103406.27
2018-12-26T11:13:00.665Z,103399.73
2018-12-26T11:15:28.938Z,103396.68
2018-12-26T11:17:57.055Z,103397.81
2018-12-26T11:20:25.276Z,103387.45
2018-12-26T11:22:53.356Z,103391.36
2018-12-26T11:25:21.636Z,103389.23
2018-12-26T11:27:49.518Z,103384.55
2018-12-26T11:30:17.435Z,103380.67
2018-12-26T11:32:45.507Z,103379.72
2018-12-26T11:35:13.446Z,103374.06
2018-12-26T11:37:41.368Z,103368.86
2018-12-26T11:40:10.132Z,103369.59
2018-12-26T11:42:38.027Z,103369.19
2018-12-26T11:45:06.514Z,103370.31
2018-12-26T11:47:34.384Z,103366.41
2018-12-26T11:50:02.787Z,103361.38
2018-12-26T11:52:30.854Z,103358.77
2018-12-26T11:54:59.213Z,103362.36
2018-12-26T11:57:27.270Z,103354.13
2018-12-26T11:59:55.756Z,103356.97
2018-12-26T12:02:26.559Z,103350.34
2018-12-26T12:04:54.627Z,103340.87
2018-12-26T12:07:22.736Z,103337.68
2018-12-26T12:09:50.767Z,103341.70
2018-12-26T12:12:21.363Z,103334.86
2018-12-26T12:14:49.731Z,103333.66
2018-12-26T12:17:18.582Z,103330.70
2018-12-26T12:19:46.589Z,103331.62
2018-12-26T12:22:14.640Z,103332.47
2018-12-26T12:24:43.533Z,103335.05
2018-12-26T12:27:11.418Z,103332.70
2018-12-26T12:29:39.863Z,103334.02
2018-12-26T12:32:07.764Z,103328.85
2018-12-26T12:34:37.046Z,103329.41
2018-12-26T12:37:05.247Z,103328.13
2018-12-26T12:39:35.957Z,103324.50
2018-12-26T12:42:04.000Z,103322.75
2018-12-26T12:44:31.973Z,103318.45
2018-12-26T12:47:00.080Z,103315.11
2018-12-26T12:49:28.528Z,103319.48
2018-12-26T12:51:56.776Z,103315.98
2018-12-26T12:54:27.403Z,103317.32
2018-12-26T12:56:55.435Z,103318.16
2018-12-26T12:59:23.416Z,103317.73
2018-12-26T13:01:51.364Z,103318.59
2018-12-26T13:04:19.398Z,103324.27
2018-12-26T13:06:47.389Z,103322.50
2018-12-26T13:09:15.493Z,103319.04
2018-12-26T13:11:45.785Z,103306.42
2018-12-26T13:14:14.026Z,103303.84
2018-12-26T13:16:42.053Z,103306.44
2018-12-26T13:19:10.009Z,103302.52
2018-12-26T13:21:38.283Z,103294.27
2018-12-26T13:24:06.282Z,103302.92
2018-12-26T13:26:34.326Z,103292.09
2018-12-26T13:29:02.351Z,103299.48
2018-12-26T13:31:30.336Z,103299.47
2018-12-26T13:34:03.412Z,103302.06
2018-12-26T13:36:31.990Z,103299.09
2018-12-26T13:39:00.016Z,103302.13
2018-12-26T13:41:29.380Z,103302.98
2018-12-26T13:43:57.539Z,103296.05
2018-12-26T13:46:33.558Z,103299.09
2018-12-26T13:48:55.451Z,103293.42
2018-12-26T13:51:23.985Z,103295.16
2018-12-26T13:53:52.001Z,103293.83
2018-12-26T13:56:21.297Z,103294.27
2018-12-26T13:58:49.408Z,103292.53
2018-12-26T14:01:17.310Z,103293.84
2018-12-26T14:03:45.202Z,103293.80
2018-12-26T14:06:13.174Z,103292.95
2018-12-26T14:08:41.005Z,103289.91
2018-12-26T14:11:08.894Z,103290.79
2018-12-26T14:13:36.878Z,103290.38
2018-12-26T14:16:04.732Z,103288.64
2018-12-26T14:18:32.967Z,103281.27
2018-12-26T14:21:00.978Z,103289.09
2018-12-26T14:23:28.783Z,103278.66
2018-12-26T14:25:56.710Z,103287.73
2018-12-26T14:28:24.716Z,103272.99
2018-12-26T14:30:52.584Z,103273.84
2018-12-26T14:33:20.455Z,103277.73
2018-12-26T14:35:58.093Z,103276.88
2018-12-26T14:38:26.628Z,103276.44
2018-12-26T14:40:54.638Z,103273.87
2018-12-26T14:43:22.645Z,103270.41
2018-12-26T14:45:50.531Z,103272.14
2018-12-26T14:48:18.400Z,103271.26
2018-12-26T14:50:46.352Z,103270.80
2018-12-26T14:53:14.245Z,103273.83
2018-12-26T14:55:42.144Z,103276.85
2018-12-26T14:58:10.158Z,103279.48
2018-12-26T15:00:38.071Z,103279.03
2018-12-26T15:03:05.933Z,103278.56
2018-12-26T15:05:33.956Z,103279.00
2018-12-26T15:08:01.863Z,103275.12
2018-12-26T15:10:29.860Z,103280.31
2018-12-26T15:12:57.723Z,103276.83
2018-12-26T15:15:25.766Z,103265.97
2018-12-26T15:17:54.764Z,103268.58
2018-12-26T15:20:22.825Z,103259.03
2018-12-26T15:22:50.854Z,103259.45
2018-12-26T15:25:18.752Z,103261.26
2018-12-26T15:27:46.639Z,103268.63
2018-12-26T15:30:14.631Z,103262.99
2018-12-26T15:32:42.651Z,103263.05
2018-12-26T15:35:10.522Z,103266.95
2018-12-26T15:37:38.589Z,103264.34
2018-12-26T15:40:09.056Z,103260.44
2018-12-26T15:42:36.972Z,103266.09
2018-12-26T15:45:05.197Z,103265.19
2018-12-26T15:47:33.168Z,103264.77
2018-12-26T15:50:01.054Z,103265.62
2018-12-26T15:52:28.941Z,103269.98
2018-12-26T15:54:57.017Z,103274.31
2018-12-26T15:57:24.903Z,103267.37
2018-12-26T15:59:52.797Z,103266.52
2018-12-26T16:02:20.840Z,103268.25
2018-12-26T16:04:48.828Z,103260.44
2018-12-26T16:07:16.911Z,103260.42
2018-12-26T16:09:44.855Z,103258.70
2018-12-26T16:12:12.712Z,103261.72
2018-12-26T16:14:40.778Z,103257.84
2018-12-26T16:17:08.661Z,103260.42
2018-12-26T16:19:36.517Z,103250.90
2018-12-26T16:22:04.519Z,103253.04
2018-12-26T16:24:33.777Z,103255.62
2018-12-26T16:27:01.693Z,103247.38
2018-12-26T16:29:29.755Z,103258.59
2018-12-26T16:31:57.651Z,103259.02
2018-12-26T16:34:25.729Z,103246.89
2018-12-26T16:36:53.640Z,103252.95
2018-12-26T16:39:21.573Z,103248.13
2018-12-26T16:41:49.592Z,103252.84
2018-12-26T16:44:17.583Z,103250.59
2018-12-26T16:46:45.569Z,103250.54
2018-12-26T16:49:13.446Z,103250.08
2018-12-26T16:51:41.821Z,103255.66
2018-12-26T16:54:09.877Z,103253.00
2018-12-26T16:56:37.814Z,103252.09
2018-12-26T16:59:05.769Z,103253.83
2018-12-26T17:01:33.688Z,103254.17
2018-12-26T17:04:01.739Z,103248.56
2018-12-26T17:06:29.711Z,103247.27
2018-12-26T17:08:57.661Z,103248.56
2018-12-26T17:19:25.075Z,103242.83
2018-12-26T17:21:52.876Z,103240.14
2018-12-26T17:24:20.856Z,103244.34
2018-12-26T17:26:48.662Z,103244.70
2018-12-26T17:29:16.443Z,103248.55
2018-12-26T17:31:44.486Z,103232.88
2018-12-26T17:34:12.789Z,103241.95
2018-12-26T17:36:40.641Z,103231.98
2018-12-26T17:39:08.553Z,103237.23
2018-12-26T17:41:36.371Z,103228.55
2018-12-26T17:44:04.176Z,103222.92
2018-12-26T17:46:32.215Z,103230.17
2018-12-26T17:49:00.023Z,103231.85
2018-12-26T17:51:27.868Z,103234.47
2018-12-26T17:54:51.846Z,103229.73
2018-12-26T17:57:32.404Z,103226.17
2018-12-26T18:00:38.787Z,103227.70
2018-12-26T18:03:06.589Z,103230.34
2018-12-26T18:05:34.485Z,103226.25
2018-12-26T18:08:02.361Z,103232.30
2018-12-26T18:10:30.227Z,103229.23
2018-12-26T18:12:58.019Z,103239.42
2018-12-26T18:15:25.899Z,103234.77
2018-12-26T18:17:53.776Z,103238.79
2018-12-26T18:20:21.590Z,103239.70
2018-12-26T18:22:49.415Z,103236.34
2018-12-26T18:25:17.332Z,103235.47
2018-12-26T18:27:45.145Z,103239.77
2018-12-26T18:30:13.015Z,103238.08
2018-12-26T18:32:40.957Z,103236.77
2018-12-26T18:35:09.686Z,103234.62
2018-12-26T18:37:37.619Z,103236.79
2018-12-26T18:40:07.015Z,103239.42
2018-12-26T18:42:34.938Z,103236.40
2018-12-26T18:45:04.052Z,103242.00
2018-12-26T18:47:31.870Z,103233.73
2018-12-26T18:49:59.694Z,103231.08
2018-12-26T18:52:27.714Z,103235.77
2018-12-26T18:54:55.633Z,103229.16
2018-12-26T18:57:23.460Z,103228.27
2018-12-26T18:59:51.367Z,103233.80
2018-12-26T19:02:20.390Z,103225.14
2018-12-26T19:04:48.269Z,103225.05
2018-12-26T19:07:16.189Z,103228.80
2018-12-26T19:09:43.996Z,103223.55
2018-12-26T19:12:12.002Z,103220.96
2018-12-26T19:14:40.381Z,103224.02
2018-12-26T19:17:08.514Z,103231.23
2018-12-26T19:19:36.340Z,103232.11
2018-12-26T19:22:04.329Z,103227.81
2018-12-26T19:24:32.243Z,103223.91
2018-12-26T19:27:02.447Z,103227.78
2018-12-26T19:29:30.443Z,103235.12
2018-12-26T19:31:58.385Z,103237.92
2018-12-26T19:34:26.515Z,103236.17
2018-12-26T19:36:54.419Z,103240.11
2018-12-26T19:39:22.301Z,103241.81
2018-12-26T19:41:50.311Z,103233.25
2018-12-26T19:44:18.284Z,103226.37
2018-12-26T19:46:46.115Z,103223.36
2018-12-26T19:49:13.989Z,103226.80
2018-12-26T19:51:41.933Z,103223.38
2018-12-26T19:54:09.730Z,103224.66
2018-12-26T19:56:37.704Z,103223.77
2018-12-26T19:59:05.572Z,103223.40
2018-12-26T20:01:33.503Z,103222.41
2018-12-26T20:04:01.732Z,103218.11
2018-12-26T20:06:29.525Z,103220.78
2018-12-26T20:08:57.350Z,103220.31
2018-12-26T20:11:25.326Z,103216.86
2018-12-26T20:13:53.250Z,103219.35
2018-12-26T20:16:21.183Z,103216.32
2018-12-26T20:18:49.092Z,103211.97
2018-12-26T20:21:18.511Z,103209.81
2018-12-26T20:23:46.331Z,103202.48
2018-12-26T20:26:14.525Z,103202.48
2018-12-26T20:28:43.291Z,103199.87
2018-12-26T20:31:11.150Z,103191.55
2018-12-26T20:33:39.036Z,103191.17
2018-12-26T20:36:07.598Z,103180.73
2018-12-26T20:38:38.393Z,103178.57
2018-12-26T20:41:08.785Z,103180.72
2018-12-26T20:43:37.760Z,103174.20
2018-12-26T20:46:06.160Z,103181.02
2018-12-26T20:48:34.251Z,103171.56
2018-12-26T20:51:02.073Z,103173.30
2018-12-26T20:53:29.918Z,103169.48
2018-12-26T20:55:58.069Z,103169.89
2018-12-26T20:58:25.941Z,103175.13
2018-12-26T21:00:53.921Z,103172.97
2018-12-26T21:03:21.793Z,103171.16
2018-12-26T21:05:49.746Z,103171.23
2018-12-26T21:08:17.710Z,103169.95
2018-12-26T21:10:45.532Z,103167.73
2018-12-26T21:13:15.507Z,103169.82
2018-12-26T21:15:43.472Z,103166.88
2018-12-26T21:18:11.380Z,103164.23
2018-12-26T21:20:39.239Z,103165.48
2018-12-26T21:23:08.168Z,103162.52
2018-12-26T21:25:36.987Z,103158.15
2018-12-26T21:28:05.006Z,103159.02
2018-12-26T21:30:32.975Z,103155.09
2018-12-26T21:33:02.749Z,103147.33
2018-12-26T21:35:34.848Z,103143.45
2018-12-26T21:38:05.458Z,103136.97
2018-12-26T21:40:36.587Z,103136.02
2018-12-26T21:43:04.655Z,103136.39
2018-12-26T21:45:33.826Z,103140.56
2018-12-26T21:48:03.295Z,103137.83
2018-12-26T21:50:31.323Z,103140.87
2018-12-26T21:53:01.971Z,103134.72
2018-12-26T21:55:29.955Z,103126.98
2018-12-26T21:57:59.665Z,103133.00
2018-12-26T22:00:27.686Z,103133.77
2018-12-26T22:02:55.718Z,103128.97
2018-12-26T22:05:25.798Z,103124.67
2018-12-26T22:07:53.856Z,103122.50
2018-12-26T22:10:22.879Z,103130.70
2018-12-26T22:12:52.484Z,103131.13
2018-12-26T22:15:20.457Z,103132.05
2018-12-26T22:17:48.611Z,103138.91
2018-12-26T22:20:16.717Z,103130.70
2018-12-26T22:22:44.790Z,103138.93
2018-12-26T22:25:12.894Z,103132.78
2018-12-26T22:27:40.856Z,103132.22
2018-12-26T22:30:10.661Z,103127.67
2018-12-26T22:32:40.792Z,103125.86
2018-12-26T22:35:10.821Z,103121.71
2018-12-26T22:37:38.777Z,103113.94
2018-12-26T22:40:08.714Z,103112.00
2018-12-26T22:42:38.879Z,103121.06
2018-12-26T22:45:07.835Z,103113.38
2018-12-26T22:47:35.817Z,103110.21
2018-12-26T22:50:04.616Z,103110.20
2018-12-26T22:52:32.674Z,103108.56
2018-12-26T22:55:00.774Z,103108.59
2018-12-26T22:57:31.862Z,103111.20
2018-12-26T22:59:59.983Z,103103.07
2018-12-26T23:02:38.651Z,103100.99
2018-12-26T23:05:00.770Z,103101.53
2018-12-26T23:07:28.916Z,103108.53
2018-12-26T23:09:56.843Z,103100.38
2018-12-26T23:12:25.794Z,103095.67
2018-12-26T23:14:53.761Z,103097.42
2018-12-26T23:17:21.859Z,103086.16
2018-12-26T23:19:56.087Z,103085.70
2018-12-26T23:22:24.987Z,103083.52
2018-12-26T23:24:53.019Z,103085.69
2018-12-26T23:27:24.083Z,103086.15
2018-12-26T23:29:53.199Z,103085.69
2018-12-26T23:32:22.544Z,103086.59
2018-12-26T23:34:50.501Z,103078.83
2018-12-26T23:37:18.449Z,103072.76
2018-12-26T23:39:48.504Z,103065.82
2018-12-26T23:42:16.388Z,103068.45
2018-12-26T23:44:44.322Z,103061.94
2018-12-26T23:47:12.455Z,103061.91
2018-12-26T23:49:40.506Z,103064.94
2018-12-26T23:52:13.481Z,103060.14
2018-12-26T23:54:43.603Z,103061.33
2018-12-26T23:57:11.527Z,103059.55
2018-12-26T23:59:39.442Z,103062.11
